sensor_id;sensor_type;location;lat;lon;timestamp;pressure;altitude;pressure_sealevel;temperature;humidity
56504;BME280;48812;51.606;-0.114;2023-03-16T00:01:34;100430.13;;;16.90;54.45
56504;BME280;48812;51.606;-0.114;2023-03-16T00:04:06;100422.19;;;16.88;54.70
56504;BME280;48812;51.606;-0.114;2023-03-16T00:06:39;100426.56;;;16.89;54.79
56504;BME280;48812;51.606;-0.114;2023-03-16T00:09:14;100429.25;;;16.89;54.13
56504;BME280;48812;51.606;-0.114;2023-03-16T00:11:48;100425.78;;;16.87;54.55
56504;BME280;48812;51.606;-0.114;2023-03-16T00:14:21;100415.19;;;16.86;54.26
56504;BME280;48812;51.606;-0.114;2023-03-16T00:16:54;100418.81;;;16.85;54.48
56504;BME280;48812;51.606;-0.114;2023-03-16T00:19:27;100413.41;;;16.86;54.18
56504;BME280;48812;51.606;-0.114;2023-03-16T00:22:01;100415.34;;;16.83;54.18
56504;BME280;48812;51.606;-0.114;2023-03-16T00:24:33;100416.22;;;16.83;54.49
56504;BME280;48812;51.606;-0.114;2023-03-16T00:27:06;100412.66;;;16.83;54.18
56504;BME280;48812;51.606;-0.114;2023-03-16T00:29:42;100402.94;;;16.82;54.11
56504;BME280;48812;51.606;-0.114;2023-03-16T00:32:20;100403.88;;;16.81;54.42
56504;BME280;48812;51.606;-0.114;2023-03-16T00:34:53;100395.94;;;16.79;54.53
56504;BME280;48812;51.606;-0.114;2023-03-16T00:37:26;100392.41;;;16.78;54.54
56504;BME280;48812;51.606;-0.114;2023-03-16T00:40:00;100386.22;;;16.78;54.51
56504;BME280;48812;51.606;-0.114;2023-03-16T00:42:33;100388.97;;;16.76;54.57
56504;BME280;48812;51.606;-0.114;2023-03-16T00:45:06;100385.41;;;16.76;54.38
56504;BME280;48812;51.606;-0.114;2023-03-16T00:47:39;100365.88;;;16.75;54.37
56504;BME280;48812;51.606;-0.114;2023-03-16T00:50:13;100369.38;;;16.76;54.50
56504;BME280;48812;51.606;-0.114;2023-03-16T00:52:46;100363.28;;;16.74;54.36
56504;BME280;48812;51.606;-0.114;2023-03-16T00:55:19;100354.47;;;16.72;54.46
56504;BME280;48812;51.606;-0.114;2023-03-16T00:57:52;100347.41;;;16.71;54.34
56504;BME280;48812;51.606;-0.114;2023-03-16T01:00:25;100345.63;;;16.71;54.70
56504;BME280;48812;51.606;-0.114;2023-03-16T01:03:00;100339.47;;;16.69;53.98
56504;BME280;48812;51.606;-0.114;2023-03-16T01:05:32;100335.94;;;16.69;54.67
56504;BME280;48812;51.606;-0.114;2023-03-16T01:08:05;100331.53;;;16.68;54.36
56504;BME280;48812;51.606;-0.114;2023-03-16T01:10:38;100329.84;;;16.67;54.50
56504;BME280;48812;51.606;-0.114;2023-03-16T01:13:11;100325.41;;;16.66;53.99
56504;BME280;48812;51.606;-0.114;2023-03-16T01:15:44;100315.66;;;16.65;54.34
56504;BME280;48812;51.606;-0.114;2023-03-16T01:18:17;100321.97;;;16.64;54.08
56504;BME280;48812;51.606;-0.114;2023-03-16T01:20:49;100317.56;;;16.63;54.36
56504;BME280;48812;51.606;-0.114;2023-03-16T01:23:22;100311.38;;;16.62;54.29
56504;BME280;48812;51.606;-0.114;2023-03-16T01:25:55;100307.94;;;16.60;54.60
56504;BME280;48812;51.606;-0.114;2023-03-16T01:28:30;100304.28;;;16.61;54.35
56504;BME280;48812;51.606;-0.114;2023-03-16T01:31:08;100299.91;;;16.60;54.09
56504;BME280;48812;51.606;-0.114;2023-03-16T01:33:42;100292.84;;;16.59;54.17
56504;BME280;48812;51.606;-0.114;2023-03-16T01:36:20;100288.44;;;16.58;54.10
56504;BME280;48812;51.606;-0.114;2023-03-16T01:38:59;100276.06;;;16.57;54.31
56504;BME280;48812;51.606;-0.114;2023-03-16T01:41:37;100271.56;;;16.57;54.55
56504;BME280;48812;51.606;-0.114;2023-03-16T01:44:14;100267.25;;;16.55;54.65
56504;BME280;48812;51.606;-0.114;2023-03-16T01:46:48;100264.69;;;16.53;54.36
56504;BME280;48812;51.606;-0.114;2023-03-16T01:49:33;100270.00;;;16.53;54.37
56504;BME280;48812;51.606;-0.114;2023-03-16T01:52:10;100269.13;;;16.53;53.99
56504;BME280;48812;51.606;-0.114;2023-03-16T01:54:51;100257.59;;;16.52;54.29
56504;BME280;48812;51.606;-0.114;2023-03-16T01:57:33;100253.19;;;16.51;54.08
56504;BME280;48812;51.606;-0.114;2023-03-16T02:00:14;100255.00;;;16.51;53.95
56504;BME280;48812;51.606;-0.114;2023-03-16T02:03:18;100241.75;;;16.49;54.31
56504;BME280;48812;51.606;-0.114;2023-03-16T02:06:08;100240.00;;;16.48;54.16
56504;BME280;48812;51.606;-0.114;2023-03-16T02:08:46;100242.84;;;16.45;54.56
56504;BME280;48812;51.606;-0.114;2023-03-16T02:11:21;100238.28;;;16.47;54.11
56504;BME280;48812;51.606;-0.114;2023-03-16T02:14:10;100236.56;;;16.46;54.01
56504;BME280;48812;51.606;-0.114;2023-03-16T02:16:44;100235.69;;;16.46;54.25
56504;BME280;48812;51.606;-0.114;2023-03-16T02:19:27;100220.69;;;16.43;54.25
56504;BME280;48812;51.606;-0.114;2023-03-16T02:22:08;100217.09;;;16.44;53.92
56504;BME280;48812;51.606;-0.114;2023-03-16T02:24:45;100212.69;;;16.43;54.14
56504;BME280;48812;51.606;-0.114;2023-03-16T02:30:19;100199.50;;;16.40;54.07
56504;BME280;48812;51.606;-0.114;2023-03-16T02:33:03;100195.06;;;16.40;54.49
56504;BME280;48812;51.606;-0.114;2023-03-16T02:35:36;100201.31;;;16.39;54.21
56504;BME280;48812;51.606;-0.114;2023-03-16T02:38:08;100197.81;;;16.39;54.14
56504;BME280;48812;51.606;-0.114;2023-03-16T02:40:56;100200.56;;;16.37;54.54
56504;BME280;48812;51.606;-0.114;2023-03-16T02:43:33;100192.63;;;16.36;54.12
56504;BME280;48812;51.606;-0.114;2023-03-16T02:46:14;100190.88;;;16.35;53.97
56504;BME280;48812;51.606;-0.114;2023-03-16T02:48:54;100194.44;;;16.35;54.24
56504;BME280;48812;51.606;-0.114;2023-03-16T02:51:30;100188.22;;;16.35;54.05
56504;BME280;48812;51.606;-0.114;2023-03-16T02:54:03;100179.34;;;16.34;54.19
56504;BME280;48812;51.606;-0.114;2023-03-16T02:56:39;100165.25;;;16.32;54.34
56504;BME280;48812;51.606;-0.114;2023-03-16T02:59:13;100169.69;;;16.32;54.16
56504;BME280;48812;51.606;-0.114;2023-03-16T03:01:46;100175.03;;;16.32;54.37
56504;BME280;48812;51.606;-0.114;2023-03-16T03:04:18;100173.31;;;16.31;53.85
56504;BME280;48812;51.606;-0.114;2023-03-16T03:06:54;100148.53;;;16.29;54.38
56504;BME280;48812;51.606;-0.114;2023-03-16T03:09:27;100155.59;;;16.30;54.24
56504;BME280;48812;51.606;-0.114;2023-03-16T03:11:59;100160.91;;;16.30;54.11
56504;BME280;48812;51.606;-0.114;2023-03-16T03:14:32;100160.13;;;16.28;54.32
56504;BME280;48812;51.606;-0.114;2023-03-16T03:17:21;100150.31;;;16.28;54.18
56504;BME280;48812;51.606;-0.114;2023-03-16T03:20:01;100140.63;;;16.27;54.24
56504;BME280;48812;51.606;-0.114;2023-03-16T03:22:39;100141.53;;;16.26;54.13
56504;BME280;48812;51.606;-0.114;2023-03-16T03:25:15;100148.69;;;16.26;54.38
56504;BME280;48812;51.606;-0.114;2023-03-16T03:27:49;100146.97;;;16.25;53.98
56504;BME280;48812;51.606;-0.114;2023-03-16T03:30:24;100144.38;;;16.23;54.08
56504;BME280;48812;51.606;-0.114;2023-03-16T03:32:57;100143.50;;;16.22;53.79
56504;BME280;48812;51.606;-0.114;2023-03-16T03:35:30;100132.84;;;16.22;54.44
56504;BME280;48812;51.606;-0.114;2023-03-16T03:38:03;100143.50;;;16.22;54.27
56504;BME280;48812;51.606;-0.114;2023-03-16T03:40:39;100140.06;;;16.20;54.01
56504;BME280;48812;51.606;-0.114;2023-03-16T03:43:12;100138.34;;;16.19;54.04
56504;BME280;48812;51.606;-0.114;2023-03-16T03:45:49;100142.75;;;16.20;54.04
56504;BME280;48812;51.606;-0.114;2023-03-16T03:48:26;100134.09;;;16.15;54.05
56504;BME280;48812;51.606;-0.114;2023-03-16T03:51:01;100144.59;;;16.18;53.92
56504;BME280;48812;51.606;-0.114;2023-03-16T03:53:48;100127.81;;;16.16;54.09
56504;BME280;48812;51.606;-0.114;2023-03-16T03:56:44;100137.63;;;16.16;54.31
56504;BME280;48812;51.606;-0.114;2023-03-16T03:59:19;100131.41;;;16.15;53.91
56504;BME280;48812;51.606;-0.114;2023-03-16T04:02:09;100136.75;;;16.15;54.39
56504;BME280;48812;51.606;-0.114;2023-03-16T04:04:51;100128.84;;;16.14;54.30
56504;BME280;48812;51.606;-0.114;2023-03-16T04:07:23;100137.78;;;16.13;54.21
56504;BME280;48812;51.606;-0.114;2023-03-16T04:10:02;100135.13;;;16.13;54.55
56504;BME280;48812;51.606;-0.114;2023-03-16T04:12:42;100132.53;;;16.11;54.18
56504;BME280;48812;51.606;-0.114;2023-03-16T04:15:18;100138.78;;;16.10;54.58
56504;BME280;48812;51.606;-0.114;2023-03-16T04:18:02;100126.44;;;16.09;54.12
56504;BME280;48812;51.606;-0.114;2023-03-16T04:20:34;100127.28;;;16.10;53.99
56504;BME280;48812;51.606;-0.114;2023-03-16T04:23:08;100124.66;;;16.08;54.23
56504;BME280;48812;51.606;-0.114;2023-03-16T04:25:43;100131.81;;;16.08;54.34
56504;BME280;48812;51.606;-0.114;2023-03-16T04:28:18;100120.38;;;16.06;54.28
56504;BME280;48812;51.606;-0.114;2023-03-16T04:30:55;100130.06;;;16.07;54.28
56504;BME280;48812;51.606;-0.114;2023-03-16T04:33:39;100124.81;;;16.05;54.00
56504;BME280;48812;51.606;-0.114;2023-03-16T04:36:12;100124.81;;;16.05;54.42
56504;BME280;48812;51.606;-0.114;2023-03-16T04:38:47;100119.63;;;16.02;54.29
56504;BME280;48812;51.606;-0.114;2023-03-16T04:41:19;100120.44;;;16.04;54.32
56504;BME280;48812;51.606;-0.114;2023-03-16T04:44:02;100116.03;;;16.03;54.32
56504;BME280;48812;51.606;-0.114;2023-03-16T04:46:36;100112.59;;;16.01;54.13
56504;BME280;48812;51.606;-0.114;2023-03-16T04:49:11;100110.84;;;16.00;54.03
56504;BME280;48812;51.606;-0.114;2023-03-16T04:51:47;100112.59;;;16.01;54.18
56504;BME280;48812;51.606;-0.114;2023-03-16T04:54:23;100111.72;;;16.00;54.47
56504;BME280;48812;51.606;-0.114;2023-03-16T04:56:56;100110.84;;;16.00;53.93
56504;BME280;48812;51.606;-0.114;2023-03-16T04:59:41;100103.00;;;15.97;54.49
56504;BME280;48812;51.606;-0.114;2023-03-16T05:02:29;100102.94;;;15.98;54.36
56504;BME280;48812;51.606;-0.114;2023-03-16T05:05:05;100103.00;;;15.97;54.20
56504;BME280;48812;51.606;-0.114;2023-03-16T05:07:41;100103.09;;;15.95;53.91
56504;BME280;48812;51.606;-0.114;2023-03-16T05:10:16;100096.91;;;15.95;54.12
56504;BME280;48812;51.606;-0.114;2023-03-16T05:12:51;100097.75;;;15.95;54.35
56504;BME280;48812;51.606;-0.114;2023-03-16T05:15:24;100093.38;;;15.94;54.25
56504;BME280;48812;51.606;-0.114;2023-03-16T05:18:21;100091.72;;;15.92;54.39
56504;BME280;48812;51.606;-0.114;2023-03-16T05:20:55;100091.72;;;15.92;54.08
56504;BME280;48812;51.606;-0.114;2023-03-16T05:23:32;100089.91;;;15.92;54.00
56504;BME280;48812;51.606;-0.114;2023-03-16T05:26:07;100084.66;;;15.91;54.25
56504;BME280;48812;51.606;-0.114;2023-03-16T05:28:41;100077.63;;;15.90;54.41
56504;BME280;48812;51.606;-0.114;2023-03-16T05:31:17;100075.81;;;15.90;54.13
56504;BME280;48812;51.606;-0.114;2023-03-16T05:33:55;100074.94;;;15.90;54.71
56504;BME280;48812;51.606;-0.114;2023-03-16T05:36:28;100076.75;;;15.89;54.42
56504;BME280;48812;51.606;-0.114;2023-03-16T05:39:08;100078.63;;;15.87;54.35
56504;BME280;48812;51.606;-0.114;2023-03-16T05:41:45;100078.69;;;15.85;54.46
56504;BME280;48812;51.606;-0.114;2023-03-16T05:44:31;100076.03;;;15.85;54.30
56504;BME280;48812;51.606;-0.114;2023-03-16T05:47:23;100074.31;;;15.84;54.28
56504;BME280;48812;51.606;-0.114;2023-03-16T05:50:00;100074.31;;;15.84;54.41
56504;BME280;48812;51.606;-0.114;2023-03-16T05:52:38;100074.41;;;15.83;54.59
56504;BME280;48812;51.606;-0.114;2023-03-16T05:55:18;100076.09;;;15.84;54.31
56504;BME280;48812;51.606;-0.114;2023-03-16T05:57:58;100070.84;;;15.82;54.26
56504;BME280;48812;51.606;-0.114;2023-03-16T06:00:31;100079.81;;;15.81;54.39
56504;BME280;48812;51.606;-0.114;2023-03-16T06:03:15;100074.47;;;15.81;54.67
56504;BME280;48812;51.606;-0.114;2023-03-16T06:05:48;100078.06;;;15.80;54.39
56504;BME280;48812;51.606;-0.114;2023-03-16T06:08:26;100068.38;;;15.79;54.34
56504;BME280;48812;51.606;-0.114;2023-03-16T06:11:04;100066.63;;;15.78;54.55
56504;BME280;48812;51.606;-0.114;2023-03-16T06:13:37;100061.38;;;15.77;54.50
56504;BME280;48812;51.606;-0.114;2023-03-16T06:16:10;100072.91;;;15.77;54.60
56504;BME280;48812;51.606;-0.114;2023-03-16T06:18:45;100069.44;;;15.75;54.39
56504;BME280;48812;51.606;-0.114;2023-03-16T06:21:18;100068.53;;;15.76;54.61
56504;BME280;48812;51.606;-0.114;2023-03-16T06:23:53;100068.59;;;15.75;54.66
56504;BME280;48812;51.606;-0.114;2023-03-16T06:26:27;100070.38;;;15.74;54.42
56504;BME280;48812;51.606;-0.114;2023-03-16T06:28:59;100059.72;;;15.74;54.65
56504;BME280;48812;51.606;-0.114;2023-03-16T06:31:33;100059.84;;;15.73;54.49
56504;BME280;48812;51.606;-0.114;2023-03-16T06:34:06;100058.94;;;15.72;54.63
56504;BME280;48812;51.606;-0.114;2023-03-16T06:36:39;100058.00;;;15.73;54.89
56504;BME280;48812;51.606;-0.114;2023-03-16T06:39:16;100059.91;;;15.71;54.83
56504;BME280;48812;51.606;-0.114;2023-03-16T06:41:51;100060.75;;;15.72;54.42
56504;BME280;48812;51.606;-0.114;2023-03-16T06:44:24;100053.69;;;15.71;54.76
56504;BME280;48812;51.606;-0.114;2023-03-16T06:47:11;100060.84;;;15.70;54.56
56504;BME280;48812;51.606;-0.114;2023-03-16T06:49:44;100067.91;;;15.71;54.78
56504;BME280;48812;51.606;-0.114;2023-03-16T06:52:23;100063.34;;;15.73;54.69
56504;BME280;48812;51.606;-0.114;2023-03-16T06:54:56;100074.00;;;15.73;55.02
56504;BME280;48812;51.606;-0.114;2023-03-16T06:57:31;100074.72;;;15.77;54.72
56504;BME280;48812;51.606;-0.114;2023-03-16T07:00:03;100079.88;;;15.80;54.84
56504;BME280;48812;51.606;-0.114;2023-03-16T07:02:38;100077.91;;;15.83;54.77
56504;BME280;48812;51.606;-0.114;2023-03-16T07:05:13;100073.38;;;15.85;54.74
56504;BME280;48812;51.606;-0.114;2023-03-16T07:07:46;100089.13;;;15.90;54.84
56504;BME280;48812;51.606;-0.114;2023-03-16T07:10:19;100088.97;;;15.93;54.79
56504;BME280;48812;51.606;-0.114;2023-03-16T07:12:52;100084.34;;;15.97;54.69
56504;BME280;48812;51.606;-0.114;2023-03-16T07:15:28;100083.25;;;16.01;54.87
56504;BME280;48812;51.606;-0.114;2023-03-16T07:18:01;100074.22;;;16.03;54.88
56504;BME280;48812;51.606;-0.114;2023-03-16T07:20:34;100073.22;;;16.06;54.92
56504;BME280;48812;51.606;-0.114;2023-03-16T07:23:10;100074.00;;;16.08;55.35
56504;BME280;48812;51.606;-0.114;2023-03-16T07:25:44;100071.03;;;16.14;55.31
56504;BME280;48812;51.606;-0.114;2023-03-16T07:28:20;100063.81;;;16.16;55.07
56504;BME280;48812;51.606;-0.114;2023-03-16T07:30:56;100059.16;;;16.20;55.43
56504;BME280;48812;51.606;-0.114;2023-03-16T07:33:45;100062.53;;;16.23;54.68
56504;BME280;48812;51.606;-0.114;2023-03-16T07:36:27;100062.44;;;16.25;55.20
56504;BME280;48812;51.606;-0.114;2023-03-16T07:39:04;100062.38;;;16.27;55.12
56504;BME280;48812;51.606;-0.114;2023-03-16T07:41:39;100057.91;;;16.27;55.11
56504;BME280;48812;51.606;-0.114;2023-03-16T07:44:19;100052.31;;;16.32;55.18
56504;BME280;48812;51.606;-0.114;2023-03-16T07:46:53;100048.72;;;16.33;55.32
56504;BME280;48812;51.606;-0.114;2023-03-16T07:49:30;100053.03;;;16.35;55.14
56504;BME280;48812;51.606;-0.114;2023-03-16T07:52:06;100027.28;;;16.34;54.96
56504;BME280;48812;51.606;-0.114;2023-03-16T07:54:43;100041.31;;;16.38;54.94
56504;BME280;48812;51.606;-0.114;2023-03-16T07:57:17;100036.88;;;16.38;55.35
56504;BME280;48812;51.606;-0.114;2023-03-16T07:59:51;100046.50;;;16.41;55.39
56504;BME280;48812;51.606;-0.114;2023-03-16T08:02:25;100049.09;;;16.43;55.31
56504;BME280;48812;51.606;-0.114;2023-03-16T08:04:58;100051.66;;;16.44;55.78
56504;BME280;48812;51.606;-0.114;2023-03-16T08:07:31;100058.75;;;16.45;55.53
56504;BME280;48812;51.606;-0.114;2023-03-16T08:10:09;100051.50;;;16.47;55.54
56504;BME280;48812;51.606;-0.114;2023-03-16T08:12:49;100060.28;;;16.49;55.72
56504;BME280;48812;51.606;-0.114;2023-03-16T08:15:23;100066.47;;;16.50;55.81
56504;BME280;48812;51.606;-0.114;2023-03-16T08:18:03;100074.41;;;16.51;55.65
56504;BME280;48812;51.606;-0.114;2023-03-16T08:20:35;100077.88;;;16.53;55.69
56504;BME280;48812;51.606;-0.114;2023-03-16T08:23:08;100083.97;;;16.55;55.59
56504;BME280;48812;51.606;-0.114;2023-03-16T08:25:44;100077.69;;;16.56;55.93
56504;BME280;48812;51.606;-0.114;2023-03-16T08:28:20;100070.47;;;16.58;55.81
56504;BME280;48812;51.606;-0.114;2023-03-16T08:30:54;100074.00;;;16.59;55.89
56504;BME280;48812;51.606;-0.114;2023-03-16T08:34:03;100073.06;;;16.60;55.92
56504;BME280;48812;51.606;-0.114;2023-03-16T08:36:41;100065.91;;;16.61;56.20
56504;BME280;48812;51.606;-0.114;2023-03-16T08:39:16;100063.16;;;16.62;56.11
56504;BME280;48812;51.606;-0.114;2023-03-16T08:41:51;100075.56;;;16.63;56.18
56504;BME280;48812;51.606;-0.114;2023-03-16T08:44:34;100071.06;;;16.64;56.18
56504;BME280;48812;51.606;-0.114;2023-03-16T08:47:07;100072.00;;;16.63;56.10
56504;BME280;48812;51.606;-0.114;2023-03-16T08:49:40;100080.78;;;16.65;56.31
56504;BME280;48812;51.606;-0.114;2023-03-16T08:52:16;100074.59;;;16.64;56.37
56504;BME280;48812;51.606;-0.114;2023-03-16T08:54:48;100080.78;;;16.65;56.52
56504;BME280;48812;51.606;-0.114;2023-03-16T08:57:34;100079.00;;;16.65;56.37
56504;BME280;48812;51.606;-0.114;2023-03-16T09:00:07;100082.53;;;16.66;56.00
56504;BME280;48812;51.606;-0.114;2023-03-16T09:02:48;100090.44;;;16.67;56.02
56504;BME280;48812;51.606;-0.114;2023-03-16T09:05:21;100081.66;;;16.65;56.40
56504;BME280;48812;51.606;-0.114;2023-03-16T09:07:54;100080.72;;;16.66;56.12
56504;BME280;48812;51.606;-0.114;2023-03-16T09:10:27;100077.19;;;16.66;56.08
56504;BME280;48812;51.606;-0.114;2023-03-16T09:13:01;100072.78;;;16.65;56.33
56504;BME280;48812;51.606;-0.114;2023-03-16T09:15:34;100071.94;;;16.64;55.91
56504;BME280;48812;51.606;-0.114;2023-03-16T09:18:07;100058.50;;;16.66;56.01
56504;BME280;48812;51.606;-0.114;2023-03-16T09:20:39;100055.84;;;16.66;55.91
56504;BME280;48812;51.606;-0.114;2023-03-16T09:23:13;100046.88;;;16.67;56.18
56504;BME280;48812;51.606;-0.114;2023-03-16T09:25:45;100045.16;;;16.66;56.39
56504;BME280;48812;51.606;-0.114;2023-03-16T09:28:19;100053.94;;;16.68;56.03
56504;BME280;48812;51.606;-0.114;2023-03-16T09:30:54;100061.84;;;16.69;56.35
56504;BME280;48812;51.606;-0.114;2023-03-16T09:33:26;100052.16;;;16.68;56.00
56504;BME280;48812;51.606;-0.114;2023-03-16T09:36:03;100059.28;;;16.68;55.71
56504;BME280;48812;51.606;-0.114;2023-03-16T09:38:36;100054.72;;;16.70;55.81
56504;BME280;48812;51.606;-0.114;2023-03-16T09:46:51;100048.44;;;16.71;56.08
56504;BME280;48812;51.606;-0.114;2023-03-16T09:49:33;100035.00;;;16.72;56.00
56504;BME280;48812;51.606;-0.114;2023-03-16T09:55:28;100045.50;;;16.75;56.06
56504;BME280;48812;51.606;-0.114;2023-03-16T09:58:05;100041.91;;;16.76;55.91
56504;BME280;48812;51.606;-0.114;2023-03-16T10:00:47;100050.75;;;16.77;55.82
56504;BME280;48812;51.606;-0.114;2023-03-16T10:06:15;100042.75;;;16.77;55.95
56504;BME280;48812;51.606;-0.114;2023-03-16T10:09:10;100048.88;;;16.79;55.76
56504;BME280;48812;51.606;-0.114;2023-03-16T10:11:51;100035.44;;;16.81;55.72
56504;BME280;48812;51.606;-0.114;2023-03-16T10:14:38;100038.88;;;16.83;55.75
56504;BME280;48812;51.606;-0.114;2023-03-16T10:17:42;100031.75;;;16.83;55.62
56504;BME280;48812;51.606;-0.114;2023-03-16T10:20:21;100039.66;;;16.85;55.39
56504;BME280;48812;51.606;-0.114;2023-03-16T10:22:54;100036.91;;;16.86;55.86
56504;BME280;48812;51.606;-0.114;2023-03-16T10:25:47;100033.28;;;16.87;55.56
56504;BME280;48812;51.606;-0.114;2023-03-16T10:28:25;100021.84;;;16.85;55.44
56504;BME280;48812;51.606;-0.114;2023-03-16T10:30:59;100026.25;;;16.86;55.13
56504;BME280;48812;51.606;-0.114;2023-03-16T10:33:34;100025.34;;;16.86;55.36
56504;BME280;48812;51.606;-0.114;2023-03-16T10:36:36;100015.56;;;16.86;55.28
56504;BME280;48812;51.606;-0.114;2023-03-16T10:39:11;100001.31;;;16.86;55.61
56504;BME280;48812;51.606;-0.114;2023-03-16T10:41:53;99999.53;;;16.86;55.34
56504;BME280;48812;51.606;-0.114;2023-03-16T10:44:28;99995.13;;;16.85;55.63
56504;BME280;48812;51.606;-0.114;2023-03-16T10:47:03;99990.56;;;16.87;55.38
56504;BME280;48812;51.606;-0.114;2023-03-16T10:49:41;99986.09;;;16.88;55.85
56504;BME280;48812;51.606;-0.114;2023-03-16T10:55:00;99992.28;;;16.88;55.33
56504;BME280;48812;51.606;-0.114;2023-03-16T10:57:46;99997.63;;;16.88;55.42
56504;BME280;48812;51.606;-0.114;2023-03-16T11:00:24;99982.53;;;16.87;55.16
56504;BME280;48812;51.606;-0.114;2023-03-16T11:02:59;99993.06;;;16.90;55.37
56504;BME280;48812;51.606;-0.114;2023-03-16T11:05:33;99985.91;;;16.91;55.32
56504;BME280;48812;51.606;-0.114;2023-03-16T11:08:11;99985.03;;;16.90;55.66
56504;BME280;48812;51.606;-0.114;2023-03-16T11:10:46;99980.56;;;16.91;55.08
56504;BME280;48812;51.606;-0.114;2023-03-16T11:13:33;99983.16;;;16.92;55.66
56504;BME280;48812;51.606;-0.114;2023-03-16T11:18:57;99962.56;;;16.94;54.92
56504;BME280;48812;51.606;-0.114;2023-03-16T11:24:09;99957.03;;;16.98;54.85
56504;BME280;48812;51.606;-0.114;2023-03-16T11:26:52;99951.59;;;16.99;54.88
56504;BME280;48812;51.606;-0.114;2023-03-16T11:32:05;99948.84;;;17.01;55.28
56504;BME280;48812;51.606;-0.114;2023-03-16T11:34:44;99940.84;;;17.01;55.04
56504;BME280;48812;51.606;-0.114;2023-03-16T11:43:35;99921.28;;;17.00;54.53
56504;BME280;48812;51.606;-0.114;2023-03-16T11:46:26;99926.53;;;17.02;54.52
56504;BME280;48812;51.606;-0.114;2023-03-16T11:49:34;99921.97;;;17.04;54.62
56504;BME280;48812;51.606;-0.114;2023-03-16T11:52:20;99919.22;;;17.05;54.92
56504;BME280;48812;51.606;-0.114;2023-03-16T12:01:12;99910.25;;;17.06;54.78
56504;BME280;48812;51.606;-0.114;2023-03-16T12:03:58;99913.00;;;17.05;54.13
56504;BME280;48812;51.606;-0.114;2023-03-16T12:12:31;99926.19;;;17.08;54.75
56504;BME280;48812;51.606;-0.114;2023-03-16T12:15:24;99928.06;;;17.06;54.55
56504;BME280;48812;51.606;-0.114;2023-03-16T12:20:58;99918.34;;;17.05;54.48
56504;BME280;48812;51.606;-0.114;2023-03-16T12:23:52;99927.31;;;17.04;54.21
56504;BME280;48812;51.606;-0.114;2023-03-16T12:26:31;99925.59;;;17.03;54.57
56504;BME280;48812;51.606;-0.114;2023-03-16T12:35:35;99912.34;;;17.01;54.91
56504;BME280;48812;51.606;-0.114;2023-03-16T12:44:13;99913.38;;;16.99;54.21
56504;BME280;48812;51.606;-0.114;2023-03-16T12:49:32;99911.47;;;17.01;54.67
56504;BME280;48812;51.606;-0.114;2023-03-16T12:52:09;99916.81;;;17.01;54.27
56504;BME280;48812;51.606;-0.114;2023-03-16T12:54:53;99906.03;;;17.02;54.73
56504;BME280;48812;51.606;-0.114;2023-03-16T12:57:26;99903.28;;;17.04;54.65
56504;BME280;48812;51.606;-0.114;2023-03-16T13:00:00;99891.66;;;17.05;54.70
56504;BME280;48812;51.606;-0.114;2023-03-16T13:02:35;99889.75;;;17.07;54.83
56504;BME280;48812;51.606;-0.114;2023-03-16T13:05:15;99878.88;;;17.10;54.59
56504;BME280;48812;51.606;-0.114;2023-03-16T13:08:02;99868.00;;;17.13;54.77
56504;BME280;48812;51.606;-0.114;2023-03-16T13:10:42;99867.75;;;17.18;55.04
56504;BME280;48812;51.606;-0.114;2023-03-16T13:13:33;99862.31;;;17.19;55.07
56504;BME280;48812;51.606;-0.114;2023-03-16T13:16:09;99865.56;;;17.24;54.72
56504;BME280;48812;51.606;-0.114;2023-03-16T13:18:55;99861.78;;;17.28;54.99
56504;BME280;48812;51.606;-0.114;2023-03-16T13:21:35;99854.50;;;17.30;54.56
56504;BME280;48812;51.606;-0.114;2023-03-16T13:27:01;99856.06;;;17.35;54.47
56504;BME280;48812;51.606;-0.114;2023-03-16T13:29:35;99868.47;;;17.36;54.69
56504;BME280;48812;51.606;-0.114;2023-03-16T13:32:16;99854.16;;;17.37;54.91
56504;BME280;48812;51.606;-0.114;2023-03-16T13:34:57;99839.84;;;17.38;54.77
56504;BME280;48812;51.606;-0.114;2023-03-16T13:37:31;99846.03;;;17.38;54.58
56504;BME280;48812;51.606;-0.114;2023-03-16T13:40:17;99832.59;;;17.40;54.33
56504;BME280;48812;51.606;-0.114;2023-03-16T13:42:52;99830.66;;;17.42;54.78
56504;BME280;48812;51.606;-0.114;2023-03-16T13:45:33;99826.03;;;17.45;54.72
56504;BME280;48812;51.606;-0.114;2023-03-16T13:48:15;99823.22;;;17.47;54.99
56504;BME280;48812;51.606;-0.114;2023-03-16T13:50:53;99813.41;;;17.47;55.03
56504;BME280;48812;51.606;-0.114;2023-03-16T13:53:30;99814.06;;;17.51;54.30
56504;BME280;48812;51.606;-0.114;2023-03-16T13:56:04;99810.38;;;17.54;54.39
56504;BME280;48812;51.606;-0.114;2023-03-16T13:58:37;99795.09;;;17.56;54.13
56504;BME280;48812;51.606;-0.114;2023-03-16T14:01:23;99805.69;;;17.57;53.79
56504;BME280;48812;51.606;-0.114;2023-03-16T14:04:00;99798.97;;;17.64;54.05
56504;BME280;48812;51.606;-0.114;2023-03-16T14:06:40;99797.84;;;17.68;53.90
56504;BME280;48812;51.606;-0.114;2023-03-16T14:09:25;99811.50;;;17.78;54.24
56504;BME280;48812;51.606;-0.114;2023-03-16T14:12:00;99812.81;;;17.85;53.74
56504;BME280;48812;51.606;-0.114;2023-03-16T14:14:37;99820.13;;;17.96;53.91
56504;BME280;48812;51.606;-0.114;2023-03-16T14:17:16;99833.28;;;18.14;53.59
56504;BME280;48812;51.606;-0.114;2023-03-16T14:19:57;99824.84;;;18.34;53.56
56504;BME280;48812;51.606;-0.114;2023-03-16T14:22:33;99820.56;;;18.59;53.24
56504;BME280;48812;51.606;-0.114;2023-03-16T14:25:45;99804.34;;;18.88;52.84
56504;BME280;48812;51.606;-0.114;2023-03-16T14:28:15;99806.38;;;19.23;51.85
56504;BME280;48812;51.606;-0.114;2023-03-16T14:30:50;99787.97;;;19.57;51.53
56504;BME280;48812;51.606;-0.114;2023-03-16T14:33:35;99778.78;;;19.85;50.21
56504;BME280;48812;51.606;-0.114;2023-03-16T14:36:14;99779.97;;;20.18;49.90
56504;BME280;48812;51.606;-0.114;2023-03-16T14:38:47;99785.47;;;20.65;49.25
56504;BME280;48812;51.606;-0.114;2023-03-16T14:41:23;99793.88;;;21.18;48.10